Terminal Aerodrome Forecast
Issued by NWS Wilmington, OH

Current Version | Previous Version | Graphics & Text | Print | Product List | Glossary Off
Versions: 1 2 3 4 5 6 7 8 9 10 11 12 13 14 15

000
FTUS41 KILN 162300
TAFCMH
TAF
KCMH 162325Z 1700/1724 VRB03KT P6SM SCT040
     FM170800 VRB03KT 4SM BR FEW040
     FM170900 00000KT 2SM BR FEW040
      TEMPO 1709/1712 1/2SM FG
     FM171300 VRB03KT 4SM BR FEW040
     FM171400 VRB03KT P6SM SCT035
     FM171600 25004KT P6SM BKN035
     FM172300 32004KT P6SM BKN120=

USA.gov is the U.S. government's official web portal to all federal, state and local government web resources and services.